Time;durP1;ratioP1;P1;durP2;ratioP2;P2;SDS_P1;SDS_P2;PMS_P1;PMS_P2;Temp;Humidity;BMP_temperature;BMP_pressure;BME280_temperature;BME280_humidity;BME280_pressure;Samples;Min_cycle;Max_cycle;Signal;HPM_P1;HPM_P2
2022/10/28 04:01:29;;;;;;;1999.90;999.90;;;11.20;99.90;;;;;;5529766;23;20094;-73
2022/10/28 04:03:54;;;;;;;1999.90;999.90;;;11.30;99.90;;;;;;4994205;28;20117;-73
2022/10/28 04:06:20;;;;;;;1999.90;999.90;;;11.20;99.90;;;;;;4996631;28;20556;-73
2022/10/28 04:08:46;;;;;;;1999.90;999.90;;;11.20;99.90;;;;;;4996320;28;20373;-73
2022/10/28 04:11:11;;;;;;;1999.90;999.90;;;11.30;99.90;;;;;;4997669;28;20097;-74
2022/10/28 04:13:37;;;;;;;1999.90;999.90;;;11.30;99.90;;;;;;4998234;28;20077;-73
2022/10/28 04:16:02;;;;;;;1999.90;999.90;;;11.30;99.90;;;;;;4997868;28;20166;-73
2022/10/28 04:18:28;;;;;;;1999.90;999.90;;;11.40;99.90;;;;;;4995689;28;20035;-74
2022/10/28 04:20:54;;;;;;;1999.90;999.90;;;11.40;99.90;;;;;;4997771;28;20035;-73
2022/10/28 04:23:19;;;;;;;1999.90;999.90;;;11.40;99.90;;;;;;4997472;28;20031;-74
2022/10/28 04:25:45;;;;;;;1999.90;999.90;;;11.40;99.90;;;;;;4997731;28;20046;-74
2022/10/28 04:28:10;;;;;;;1999.90;999.90;;;11.40;99.90;;;;;;4997815;28;20066;-74
2022/10/28 04:30:36;;;;;;;1999.90;999.90;;;11.40;99.90;;;;;;4997434;28;20049;-73
2022/10/28 04:33:01;;;;;;;1999.90;999.90;;;11.40;99.90;;;;;;4997521;28;20031;-74
2022/10/28 04:35:27;;;;;;;1999.90;999.90;;;11.40;99.90;;;;;;4995654;28;20089;-74
2022/10/28 04:37:52;;;;;;;1999.90;999.90;;;11.40;99.90;;;;;;4997718;28;20043;-73
2022/10/28 04:40:18;;;;;;;1999.90;999.90;;;11.40;99.90;;;;;;4997238;28;20035;-73
2022/10/28 04:42:43;;;;;;;1999.90;999.90;;;11.40;99.90;;;;;;4997167;28;20037;-74
2022/10/28 04:45:09;;;;;;;1999.90;999.90;;;11.40;99.90;;;;;;4995786;28;20452;-73
2022/10/28 04:47:35;;;;;;;1999.90;999.90;;;11.40;99.90;;;;;;4997416;28;20062;-73
2022/10/28 04:50:02;;;;;;;1999.90;999.90;;;11.40;99.90;;;;;;4997440;28;20117;-73
2022/10/28 04:52:27;;;;;;;1999.90;999.90;;;11.40;99.90;;;;;;4997182;28;20078;-73
2022/10/28 04:54:53;;;;;;;1999.90;999.90;;;11.50;99.90;;;;;;4997007;28;20047;-74
2022/10/28 04:57:18;;;;;;;1999.90;999.90;;;11.50;99.90;;;;;;4997489;28;20031;-73
2022/10/28 04:59:45;;;;;;;1999.90;999.90;;;11.50;99.90;;;;;;4996013;28;20042;-73
2022/10/28 05:02:11;;;;;;;1999.90;999.90;;;11.60;99.90;;;;;;4996972;28;20027;-74
2022/10/28 05:04:36;;;;;;;1999.90;999.90;;;11.60;99.90;;;;;;4995636;28;20848;-74
2022/10/28 05:07:02;;;;;;;1999.90;999.90;;;11.60;99.90;;;;;;4996713;28;20034;-73
2022/10/28 05:09:27;;;;;;;1999.90;999.90;;;11.70;99.90;;;;;;4997184;28;20400;-74
2022/10/28 05:11:53;;;;;;;1999.90;999.90;;;11.70;99.90;;;;;;4996707;28;20047;-74
2022/10/28 05:14:18;;;;;;;1999.90;999.90;;;11.70;99.90;;;;;;4996950;28;20035;-73
2022/10/28 05:16:44;;;;;;;1999.90;999.90;;;11.70;99.90;;;;;;4994359;28;20456;-74
2022/10/28 05:19:09;;;;;;;1999.90;999.90;;;11.70;99.90;;;;;;4997162;28;20042;-74
2022/10/28 05:21:35;;;;;;;1999.90;999.90;;;11.70;99.90;;;;;;4995293;28;20062;-73
2022/10/28 05:24:00;;;;;;;1999.90;999.90;;;11.60;99.90;;;;;;4996420;28;20035;-74
2022/10/28 05:26:26;;;;;;;1999.90;999.90;;;11.60;99.90;;;;;;4996303;28;20477;-74
2022/10/28 05:28:52;;;;;;;1999.90;999.90;;;11.60;99.90;;;;;;4995764;28;20062;-73
2022/10/28 05:31:17;;;;;;;1999.90;999.90;;;11.60;99.90;;;;;;4996264;28;20507;-74
2022/10/28 05:33:43;;;;;;;1999.90;999.90;;;11.60;99.90;;;;;;4996252;28;20483;-74
2022/10/28 05:36:09;;;;;;;1999.90;999.90;;;11.50;99.90;;;;;;4996715;28;20045;-74
2022/10/28 05:38:35;;;;;;;1999.90;999.90;;;11.50;99.90;;;;;;4996635;28;20030;-74
2022/10/28 05:41:00;;;;;;;1999.90;999.90;;;11.50;99.90;;;;;;4996175;28;20047;-74
2022/10/28 05:43:26;;;;;;;1999.90;999.90;;;11.40;99.90;;;;;;4996260;28;20516;-74
2022/10/28 05:45:55;;;;;;;1999.90;999.90;;;11.40;99.90;;;;;;4996146;28;20477;-74
2022/10/28 05:48:21;;;;;;;1999.90;999.90;;;11.40;99.90;;;;;;4995682;28;20954;-74
2022/10/28 05:50:47;;;;;;;1999.90;999.90;;;11.40;99.90;;;;;;4995437;28;20049;-74
2022/10/28 05:53:13;;;;;;;1999.90;999.90;;;11.40;99.90;;;;;;4996465;28;20058;-74
2022/10/28 05:55:38;;;;;;;1999.90;999.90;;;11.40;99.90;;;;;;4996356;28;20101;-74
2022/10/28 05:58:04;;;;;;;1999.90;999.90;;;11.30;99.90;;;;;;4996237;28;20034;-73
2022/10/28 06:00:29;;;;;;;1999.90;999.90;;;11.30;99.90;;;;;;4995813;28;20141;-73
2022/10/28 06:03:09;;;;;;;1999.90;999.90;;;11.20;99.90;;;;;;4995752;28;20035;-74
2022/10/28 06:05:44;;;;;;;1999.90;999.90;;;11.20;99.90;;;;;;4996098;28;20037;-74
2022/10/28 06:08:13;;;;;;;1999.90;999.90;;;11.20;99.90;;;;;;4996324;28;20157;-74
2022/10/28 06:10:40;;;;;;;1999.90;999.90;;;11.10;99.90;;;;;;4994279;28;20045;-74
2022/10/28 06:13:06;;;;;;;1999.90;999.90;;;11.10;99.90;;;;;;4996066;28;20461;-74
2022/10/28 06:15:31;;;;;;;1999.90;999.90;;;11.10;99.90;;;;;;4994424;28;20045;-74
2022/10/28 06:17:57;;;;;;;1999.90;999.90;;;11.00;99.90;;;;;;4996274;28;20031;-74
2022/10/28 06:20:23;;;;;;;1999.90;999.90;;;11.10;99.90;;;;;;4995936;28;20492;-74
2022/10/28 06:22:53;;;;;;;1999.90;999.90;;;11.10;99.90;;;;;;4995854;28;20035;-75
2022/10/28 06:25:20;;;;;;;1999.90;999.90;;;11.10;99.90;;;;;;4995604;28;20031;-75
2022/10/28 06:27:55;;;;;;;1999.90;999.90;;;11.10;99.90;;;;;;4995787;28;20038;-74
2022/10/28 06:30:21;;;;;;;1999.90;999.90;;;11.10;99.90;;;;;;4995666;28;20042;-74
2022/10/28 06:32:46;;;;;;;1999.90;999.90;;;11.10;99.90;;;;;;4995876;28;20042;-74
2022/10/28 06:35:12;;;;;;;1999.90;999.90;;;11.20;99.90;;;;;;4994034;28;20046;-74
2022/10/28 06:37:38;;;;;;;1999.90;999.90;;;11.20;99.90;;;;;;4995585;28;20081;-74
2022/10/28 06:40:04;;;;;;;1999.90;999.90;;;11.20;99.90;;;;;;4996074;28;20043;-74
2022/10/28 06:42:29;;;;;;;1999.90;999.90;;;11.30;99.90;;;;;;4994876;28;20042;-74
2022/10/28 06:44:55;;;;;;;1999.90;999.90;;;11.30;99.90;;;;;;4995286;28;20038;-74
2022/10/28 06:47:20;;;;;;;1999.90;999.90;;;11.40;99.90;;;;;;4995516;28;20023;-74
2022/10/28 06:49:46;;;;;;;1999.90;999.90;;;11.40;99.90;;;;;;4993742;28;20027;-75
2022/10/28 06:52:12;;;;;;;1999.90;999.90;;;11.50;99.90;;;;;;4995336;28;20242;-74
2022/10/28 06:54:37;;;;;;;1999.90;999.90;;;11.60;99.90;;;;;;4993966;28;20039;-74
2022/10/28 06:57:03;;;;;;;1999.90;999.90;;;11.60;99.90;;;;;;4994967;28;20047;-75
2022/10/28 06:59:29;;;;;;;1999.90;999.90;;;11.70;99.90;;;;;;4995309;28;20041;-75
2022/10/28 07:01:54;;;;;;;1999.90;999.90;;;11.80;99.90;;;;;;4994812;28;20053;-75
2022/10/28 07:04:20;;;;;;;1999.90;999.90;;;11.90;99.90;;;;;;4995467;28;20030;-74
2022/10/28 07:06:45;;;;;;;1999.90;999.90;;;12.00;99.90;;;;;;4995226;28;20485;-75
2022/10/28 07:09:14;;;;;;;1999.90;999.90;;;12.00;99.90;;;;;;4995264;28;20031;-75
2022/10/28 07:11:43;;;;;;;1999.90;999.90;;;12.10;99.90;;;;;;4993135;28;20050;-75
2022/10/28 07:14:09;;;;;;;1999.90;999.90;;;12.10;99.90;;;;;;4994777;28;20059;-75
2022/10/28 07:16:35;;;;;;;1999.90;999.90;;;12.20;99.90;;;;;;4994290;28;20066;-74
2022/10/28 07:19:01;;;;;;;1999.90;999.90;;;12.40;99.90;;;;;;4993978;28;20038;-75
2022/10/28 07:21:28;;;;;;;1999.90;999.90;;;12.50;99.90;;;;;;4994441;28;20089;-75
2022/10/28 07:23:55;;;;;;;1999.90;999.90;;;12.60;99.90;;;;;;4995156;28;20030;-74
2022/10/28 07:26:21;;;;;;;1999.90;999.90;;;12.60;99.90;;;;;;4994751;28;20037;-75
2022/10/28 07:28:47;;;;;;;1999.90;999.90;;;12.60;99.90;;;;;;4995121;28;20038;-75
2022/10/28 07:31:12;;;;;;;1999.90;999.90;;;12.60;99.90;;;;;;4994857;28;20039;-74
2022/10/28 07:33:38;;;;;;;1999.90;999.90;;;12.70;99.90;;;;;;4995067;28;20031;-74
2022/10/28 07:36:04;;;;;;;1999.90;999.90;;;12.60;99.90;;;;;;4994590;28;20189;-75
2022/10/28 07:38:30;;;;;;;1999.90;999.90;;;12.70;99.90;;;;;;4994888;28;20069;-74
2022/10/28 07:40:56;;;;;;;1999.90;999.90;;;12.70;99.90;;;;;;4996781;28;20041;-74
2022/10/28 07:43:22;;;;;;;1999.90;999.90;;;12.70;99.90;;;;;;4998342;28;20515;-75
2022/10/28 07:45:54;;;;;;;1999.90;999.90;;;12.80;99.90;;;;;;4998093;28;20035;-75
2022/10/28 07:48:19;;;;;;;1999.90;999.90;;;12.90;99.90;;;;;;4998056;28;20031;-74
2022/10/28 07:50:45;;;;;;;1999.90;999.90;;;13.00;99.90;;;;;;4996320;28;20047;-75
2022/10/28 07:53:10;;;;;;;1999.90;999.90;;;13.10;99.90;;;;;;4996614;28;20026;-75
2022/10/28 07:55:36;;;;;;;1999.90;999.90;;;13.10;99.90;;;;;;4997664;28;20179;-75
2022/10/28 07:58:01;;;;;;;1999.90;999.90;;;13.20;99.90;;;;;;4998070;28;20038;-75
2022/10/28 08:00:27;;;;;;;1999.90;999.90;;;13.30;99.90;;;;;;4996102;28;20043;-75
2022/10/28 08:02:52;;;;;;;1999.90;999.90;;;13.40;99.90;;;;;;4998083;28;20027;-75
2022/10/28 08:05:18;;;;;;;1999.90;999.90;;;13.50;99.90;;;;;;4997538;28;20034;-75
2022/10/28 08:07:45;;;;;;;1999.90;999.90;;;13.60;99.90;;;;;;4996309;28;20069;-75
2022/10/28 08:10:11;;;;;;;1999.90;999.90;;;13.70;99.90;;;;;;4997653;28;20063;-75
2022/10/28 08:12:37;;;;;;;1999.90;999.90;;;13.80;99.90;;;;;;4997977;28;20536;-75
2022/10/28 08:15:03;;;;;;;1999.90;999.90;;;13.90;99.90;;;;;;4997906;28;20042;-75
2022/10/28 08:17:28;;;;;;;1999.90;999.90;;;14.00;99.90;;;;;;4996194;28;20034;-75
2022/10/28 08:19:54;;;;;;;1999.90;999.90;;;14.10;99.90;;;;;;4997656;28;20038;-75
2022/10/28 08:22:19;;;;;;;1999.90;999.90;;;14.30;99.90;;;;;;4997381;28;20392;-75
2022/10/28 08:24:45;;;;;;;1999.90;999.90;;;14.40;99.90;;;;;;4995903;28;20062;-75
2022/10/28 08:27:11;;;;;;;1999.90;999.90;;;14.40;99.90;;;;;;4995930;28;20460;-75
2022/10/28 08:29:36;;;;;;;1999.90;999.90;;;14.50;99.90;;;;;;4997775;28;20039;-76
2022/10/28 08:32:02;;;;;;;1999.90;999.90;;;14.70;99.90;;;;;;4997413;28;20070;-75
2022/10/28 08:34:29;;;;;;;1999.90;999.90;;;14.80;99.90;;;;;;4997537;28;20065;-75
2022/10/28 08:36:56;;;;;;;1999.90;999.90;;;14.80;99.90;;;;;;4997211;28;20035;-76
2022/10/28 08:39:21;;;;;;;1999.90;999.90;;;14.90;99.90;;;;;;4997309;28;20099;-76
2022/10/28 08:42:11;;;;;;;1999.90;999.90;;;15.00;99.90;;;;;;4997257;28;20517;-75
2022/10/28 08:45:13;;;;;;;1999.90;999.90;;;15.10;99.90;;;;;;4946323;28;20575;-75
2022/10/28 08:47:48;;;;;;;1999.90;999.90;;;15.00;99.90;;;;;;4997560;28;20035;-75
2022/10/28 08:50:17;;;;;;;1999.90;999.90;;;15.00;99.90;;;;;;4995428;28;20038;-75
2022/10/28 08:52:47;;;;;;;1999.90;999.90;;;15.10;99.90;;;;;;4996765;28;20110;-75
2022/10/28 08:55:21;;;;;;;1999.90;999.90;;;15.10;99.90;;;;;;4995530;28;20497;-75
2022/10/28 08:58:15;;;;;;;1999.90;999.90;;;15.30;99.90;;;;;;4997142;28;20042;-75
2022/10/28 09:00:45;;;;;;;1999.90;999.90;;;15.60;99.90;;;;;;4996363;28;20539;-75
2022/10/28 09:03:11;;;;;;;1999.90;999.90;;;15.70;99.90;;;;;;4996558;28;20449;-75
2022/10/28 09:05:43;;;;;;;1999.90;999.90;;;15.70;99.90;;;;;;4997130;28;20041;-75
2022/10/28 09:08:23;;;;;;;1999.90;999.90;;;15.80;99.90;;;;;;4997337;28;20038;-75
2022/10/28 09:11:05;;;;;;;1999.90;999.90;;;16.10;99.90;;;;;;4996833;28;20097;-75
2022/10/28 09:13:53;;;;;;;1999.90;999.90;;;16.20;99.90;;;;;;4996758;28;20037;-75
2022/10/28 09:16:43;;;;;;;1999.90;999.90;;;16.40;99.90;;;;;;4996546;28;20026;-75
2022/10/28 09:19:39;;;;;;;1999.90;999.90;;;16.50;99.90;;;;;;4997161;28;20042;-75
2022/10/28 09:22:12;;;;;;;1999.90;999.90;;;16.70;99.90;;;;;;4994918;28;20484;-75
2022/10/28 09:24:55;;;;;;;1999.90;999.90;;;16.70;99.90;;;;;;4995178;28;20504;-77
2022/10/28 09:27:48;;;;;;;1999.90;999.90;;;16.60;99.90;;;;;;4996567;28;20038;-75
2022/10/28 09:30:29;;;;;;;1999.90;999.90;;;16.50;99.90;;;;;;4996453;28;20041;-75
2022/10/28 09:33:12;;;;;;;1999.90;999.90;;;16.50;99.90;;;;;;4996565;28;20086;-75
2022/10/28 09:35:42;;;;;;;1999.90;999.90;;;16.40;99.90;;;;;;4996073;28;20034;-75
2022/10/28 09:38:27;;;;;;;1999.90;999.90;;;16.30;99.90;;;;;;4996284;28;20528;-76
2022/10/28 09:41:09;;;;;;;1999.90;999.90;;;16.40;99.90;;;;;;4996482;28;20126;-75
2022/10/28 09:43:41;;;;;;;1999.90;999.90;;;16.40;99.90;;;;;;4996203;28;20572;-75
2022/10/28 09:46:12;;;;;;;1999.90;999.90;;;16.50;99.90;;;;;;4996245;28;20039;-76
2022/10/28 09:48:50;;;;;;;1999.90;999.90;;;16.50;99.90;;;;;;4996145;28;20114;-76
2022/10/28 09:51:27;;;;;;;1999.90;999.90;;;16.80;99.90;;;;;;4996043;28;20039;-75
2022/10/28 09:53:55;;;;;;;1999.90;999.90;;;17.10;99.90;;;;;;4996388;28;20118;-76
2022/10/28 09:56:21;;;;;;;1999.90;999.90;;;17.40;99.90;;;;;;4995746;28;20034;-75
2022/10/28 09:58:47;;;;;;;1999.90;999.90;;;17.60;99.90;;;;;;4996194;28;20449;-76
2022/10/28 10:01:16;;;;;;;1999.90;999.90;;;17.70;99.90;;;;;;4994440;28;20086;-75
2022/10/28 10:03:44;;;;;;;1999.90;999.90;;;17.80;99.90;;;;;;4994186;28;20035;-76
2022/10/28 10:06:17;;;;;;;1999.90;999.90;;;17.80;99.90;;;;;;4995814;28;20035;-76
2022/10/28 10:08:44;;;;;;;1999.90;999.90;;;17.90;99.90;;;;;;4995934;28;20035;-76
2022/10/28 10:11:40;;;;;;;1999.90;999.90;;;18.10;99.90;;;;;;4994083;28;20093;-76
2022/10/28 10:14:40;;;;;;;1999.90;999.90;;;18.30;99.90;;;;;;4996996;28;20066;-77
2022/10/28 10:17:15;;;;;;;1999.90;999.90;;;18.60;99.90;;;;;;4979126;28;20047;-77
2022/10/28 10:20:00;;;;;;;1999.90;999.90;;;18.80;99.90;;;;;;4996126;28;20035;-77
2022/10/28 10:22:30;;;;;;;1999.90;999.90;;;19.00;99.90;;;;;;4997883;28;20031;-77
2022/10/28 10:24:56;;;;;;;1999.90;999.90;;;19.10;99.90;;;;;;4996206;28;20038;-78
2022/10/28 10:27:24;;;;;;;1999.90;999.90;;;18.90;99.90;;;;;;4996342;28;20030;-77
2022/10/28 10:29:51;;;;;;;1999.90;999.90;;;18.80;99.90;;;;;;4996651;28;20058;-77
2022/10/28 10:32:21;;;;;;;1999.90;999.90;;;18.70;99.90;;;;;;4996159;28;20039;-77
2022/10/28 10:35:00;;;;;;;1999.90;999.90;;;18.90;99.90;;;;;;4996397;28;20089;-77
2022/10/28 10:37:26;;;;;;;1999.90;999.90;;;19.10;99.90;;;;;;4996733;28;20038;-78
2022/10/28 10:40:17;;;;;;;1999.90;999.90;;;19.30;99.90;;;;;;4996264;28;20054;-78
2022/10/28 10:42:44;;;;;;;1999.90;999.90;;;19.60;99.90;;;;;;4984817;28;20082;-78
2022/10/28 10:45:24;;;;;;;1999.90;999.90;;;19.60;99.90;;;;;;4994273;28;20041;-78
2022/10/28 10:48:12;;;;;;;1999.90;999.90;;;19.80;99.90;;;;;;4996031;28;20812;-78
2022/10/28 10:50:38;;;;;;;1999.90;999.90;;;19.80;99.90;;;;;;4995709;28;20487;-78
2022/10/28 10:53:04;;;;;;;1999.90;999.90;;;19.90;99.90;;;;;;4994075;28;20042;-78
2022/10/28 10:55:39;;;;;;;1999.90;999.90;;;19.90;99.90;;;;;;4994291;28;20035;-78
2022/10/28 10:58:14;;;;;;;1999.90;999.90;;;20.20;99.90;;;;;;4995835;28;20031;-77
2022/10/28 11:00:51;;;;;;;1999.90;999.90;;;20.10;99.90;;;;;;4995220;28;20516;-78
2022/10/28 11:03:23;;;;;;;1999.90;999.90;;;19.90;99.90;;;;;;4994308;28;20039;-78
2022/10/28 11:05:57;;;;;;;1999.90;999.90;;;20.00;99.90;;;;;;4995253;28;20109;-78
2022/10/28 11:08:42;;;;;;;1999.90;999.90;;;19.90;99.90;;;;;;4995681;28;20031;-77
2022/10/28 11:11:10;;;;;;;1999.90;999.90;;;20.00;99.90;;;;;;4996459;28;20039;-77
2022/10/28 11:13:37;;;;;;;1999.90;999.90;;;20.10;99.90;;;;;;4994625;28;20034;-77
2022/10/28 11:16:06;;;;;;;1999.90;999.90;;;20.10;99.90;;;;;;4994938;28;20069;-77
2022/10/28 11:18:46;;;;;;;1999.90;999.90;;;20.20;99.90;;;;;;4995807;28;20153;-77
2022/10/28 11:21:47;;;;;;;1999.90;999.90;;;20.30;99.90;;;;;;4996653;28;20031;-77
2022/10/28 11:24:41;;;;;;;1999.90;999.90;;;20.60;99.90;;;;;;4985538;28;20038;-77
2022/10/28 11:27:40;;;;;;;1999.90;999.90;;;21.00;99.90;;;;;;4995395;28;20070;-77
2022/10/28 11:30:13;;;;;;;1999.90;999.90;;;21.60;99.90;;;;;;4996673;28;20031;-76
2022/10/28 11:32:47;;;;;;;1999.90;999.90;;;21.90;99.90;;;;;;4995646;28;20548;-77
2022/10/28 11:35:38;;;;;;;1999.90;999.90;;;22.10;99.90;;;;;;4995974;28;20035;-77
2022/10/28 11:38:09;;;;;;;1999.90;999.90;;;22.30;99.90;;;;;;4997763;28;20041;-77
2022/10/28 11:41:03;;;;;;;1999.90;999.90;;;22.50;99.90;;;;;;4997133;28;20031;-77
2022/10/28 11:43:28;;;;;;;1999.90;999.90;;;22.60;99.90;;;;;;4997329;28;20039;-77
2022/10/28 11:46:06;;;;;;;1999.90;999.90;;;22.40;99.90;;;;;;4995829;28;20031;-77
2022/10/28 11:48:43;;;;;;;1999.90;999.90;;;22.20;99.90;;;;;;4997436;28;20101;-77
2022/10/28 11:51:23;;;;;;;1999.90;999.90;;;22.10;99.90;;;;;;4996588;28;20050;-77
2022/10/28 11:54:19;;;;;;;1999.90;999.90;;;21.80;99.90;;;;;;4997994;28;20034;-77
2022/10/28 11:57:00;;;;;;;1999.90;999.90;;;21.80;99.90;;;;;;4997353;28;20027;-77
2022/10/28 11:59:54;;;;;;;1999.90;999.90;;;21.60;99.90;;;;;;4997642;28;20037;-77
2022/10/28 12:02:31;;;;;;;1999.90;999.90;;;21.50;99.90;;;;;;4996373;28;20181;-76
2022/10/28 12:05:26;;;;;;;1999.90;999.90;;;21.50;99.90;;;;;;4994643;28;20035;-77
2022/10/28 12:08:00;;;;;;;1999.90;999.90;;;21.70;99.90;;;;;;4995941;28;20034;-77
2022/10/28 12:10:53;;;;;;;1999.90;999.90;;;21.70;99.90;;;;;;4995509;28;20038;-77
2022/10/28 12:13:42;;;;;;;1999.90;999.90;;;21.90;99.90;;;;;;4996321;28;20114;-77
2022/10/28 12:16:22;;;;;;;1999.90;999.90;;;22.00;99.90;;;;;;4995134;28;20496;-77
2022/10/28 12:19:23;;;;;;;1999.90;999.90;;;22.20;99.90;;;;;;4996761;28;20042;-76
2022/10/28 12:21:58;;;;;;;1999.90;999.90;;;22.40;99.90;;;;;;4956820;28;20657;-77
2022/10/28 12:24:25;;;;;;;1999.90;999.90;;;22.50;99.90;;;;;;4997197;28;20062;-77
2022/10/28 12:26:55;;;;;;;1999.90;999.90;;;22.50;99.90;;;;;;4998472;28;20038;-77
2022/10/28 12:29:25;;;;;;;1999.90;999.90;;;22.50;99.90;;;;;;5000432;28;20089;-79
2022/10/28 12:31:59;;;;;;;1999.90;999.90;;;22.30;99.90;;;;;;4997166;28;20166;-76
2022/10/28 12:34:32;;;;;;;1999.90;999.90;;;22.10;99.90;;;;;;4997653;28;20106;-76
2022/10/28 12:37:04;;;;;;;1999.90;999.90;;;21.80;99.90;;;;;;4997051;28;20042;-76
2022/10/28 12:39:42;;;;;;;1999.90;999.90;;;21.80;99.90;;;;;;4995927;28;20038;-77
2022/10/28 12:42:19;;;;;;;1999.90;999.90;;;21.80;99.90;;;;;;4997354;28;20043;-76
2022/10/28 12:44:45;;;;;;;1999.90;999.90;;;21.80;99.90;;;;;;4995545;28;20030;-77
2022/10/28 12:47:13;;;;;;;1999.90;999.90;;;21.70;99.90;;;;;;4997492;28;20113;-76
2022/10/28 12:50:07;;;;;;;1999.90;999.90;;;21.70;99.90;;;;;;4997227;28;20066;-77
2022/10/28 12:52:51;;;;;;;1999.90;999.90;;;21.70;99.90;;;;;;4995449;28;20568;-76
2022/10/28 12:55:25;;;;;;;1999.90;999.90;;;21.90;99.90;;;;;;4996952;28;20509;-76
2022/10/28 12:58:00;;;;;;;1999.90;999.90;;;22.00;99.90;;;;;;4997494;28;20038;-76
2022/10/28 13:00:30;;;;;;;1999.90;999.90;;;22.10;99.90;;;;;;4995117;28;20048;-76
2022/10/28 13:03:04;;;;;;;1999.90;999.90;;;22.20;99.90;;;;;;4997160;28;20563;-77
2022/10/28 13:06:09;;;;;;;1999.90;999.90;;;22.30;99.90;;;;;;4996892;28;20034;-76
2022/10/28 13:08:58;;;;;;;1999.90;999.90;;;22.40;99.90;;;;;;4997058;28;20030;-77
2022/10/28 13:12:04;;;;;;;1999.90;999.90;;;22.40;99.90;;;;;;4996950;28;20117;-76
2022/10/28 13:14:50;;;;;;;1999.90;999.90;;;22.50;99.90;;;;;;4996680;28;20039;-76
2022/10/28 13:17:34;;;;;;;1999.90;999.90;;;22.50;99.90;;;;;;4995133;28;20035;-76
2022/10/28 13:20:00;;;;;;;1999.90;999.90;;;22.60;99.90;;;;;;4995429;28;20027;-76
2022/10/28 13:22:43;;;;;;;1999.90;999.90;;;22.70;99.90;;;;;;4996677;28;20081;-77
2022/10/28 13:25:33;;;;;;;1999.90;999.90;;;22.70;99.90;;;;;;4994967;28;20106;-77
2022/10/28 13:27:59;;;;;;;1999.90;999.90;;;22.80;99.90;;;;;;4996902;28;20567;-77
2022/10/28 13:30:27;;;;;;;1999.90;999.90;;;22.90;99.90;;;;;;4996582;28;20045;-76
2022/10/28 13:33:15;;;;;;;1999.90;999.90;;;23.00;99.90;;;;;;4996709;28;20121;-77
2022/10/28 13:35:41;;;;;;;1999.90;999.90;;;23.10;99.90;;;;;;4996183;28;20027;-77
2022/10/28 13:38:12;;;;;;;1999.90;999.90;;;23.10;99.90;;;;;;4994178;28;20030;-77
2022/10/28 13:40:37;;;;;;;1999.90;999.90;;;23.30;99.90;;;;;;4996547;28;20046;-77
2022/10/28 13:43:03;;;;;;;1999.90;999.90;;;23.50;99.90;;;;;;4996746;28;20393;-77
2022/10/28 13:45:52;;;;;;;1999.90;999.90;;;23.60;99.90;;;;;;4997779;28;20038;-77
2022/10/28 13:48:41;;;;;;;1999.90;999.90;;;23.60;99.90;;;;;;4994721;28;20038;-77
2022/10/28 13:51:09;;;;;;;1999.90;999.90;;;23.40;99.90;;;;;;4995961;28;20429;-77
2022/10/28 13:53:44;;;;;;;1999.90;999.90;;;23.20;99.90;;;;;;5000459;28;20030;-77
2022/10/28 13:56:28;;;;;;;1999.90;999.90;;;23.00;99.90;;;;;;4996273;28;20046;-77
2022/10/28 13:59:03;;;;;;;1999.90;999.90;;;22.80;99.90;;;;;;4996049;28;20065;-77
2022/10/28 14:01:53;;;;;;;1999.90;999.90;;;22.70;99.90;;;;;;4994054;28;20519;-77
2022/10/28 14:04:23;;;;;;;1999.90;999.90;;;22.70;99.90;;;;;;4995918;28;20073;-77
2022/10/28 14:06:49;;;;;;;1999.90;999.90;;;22.70;99.90;;;;;;4995533;28;20097;-77
2022/10/28 14:09:28;;;;;;;1999.90;999.90;;;22.60;99.90;;;;;;4995731;28;20031;-77
2022/10/28 14:12:25;;;;;;;1999.90;999.90;;;22.60;99.90;;;;;;4994407;28;20090;-76
2022/10/28 14:15:02;;;;;;;1999.90;999.90;;;22.60;99.90;;;;;;4994791;28;20058;-82
2022/10/28 14:17:51;;;;;;;1999.90;999.90;;;22.60;99.90;;;;;;4995740;28;20043;-76
2022/10/28 14:20:37;;;;;;;1999.90;999.90;;;22.60;99.90;;;;;;4969057;28;20178;-77
2022/10/28 14:23:21;;;;;;;1999.90;999.90;;;22.50;99.90;;;;;;4996059;28;20500;-77
2022/10/28 14:25:49;;;;;;;1999.90;999.90;;;22.60;99.90;;;;;;4992566;28;20031;-76
2022/10/28 14:28:28;;;;;;;1999.90;999.90;;;22.60;99.90;;;;;;4994269;28;20035;-77
2022/10/28 14:31:11;;;;;;;1999.90;999.90;;;22.50;99.90;;;;;;4995450;28;20046;-76
2022/10/28 14:33:45;;;;;;;1999.90;999.90;;;22.30;99.90;;;;;;4995478;28;20080;-77
2022/10/28 14:36:17;;;;;;;1999.90;999.90;;;22.20;99.90;;;;;;4995145;28;20118;-77
2022/10/28 14:39:20;;;;;;;1999.90;999.90;;;21.90;99.90;;;;;;4995677;28;20090;-76
2022/10/28 14:42:03;;;;;;;1999.90;999.90;;;21.70;99.90;;;;;;4996153;28;20038;-80
2022/10/28 14:45:07;;;;;;;1999.90;999.90;;;21.50;99.90;;;;;;5002302;28;20035;-80
2022/10/28 14:47:57;;;;;;;1999.90;999.90;;;21.20;99.90;;;;;;5000165;28;20030;-79
2022/10/28 14:50:40;;;;;;;1999.90;999.90;;;21.00;99.90;;;;;;4998722;28;20528;-79
2022/10/28 14:53:23;;;;;;;1999.90;999.90;;;20.90;99.90;;;;;;4998574;28;20038;-79
2022/10/28 14:55:59;;;;;;;1999.90;999.90;;;20.80;99.90;;;;;;5000178;28;20085;-79
2022/10/28 14:58:29;;;;;;;1999.90;999.90;;;20.70;99.90;;;;;;4998265;28;20030;-79
2022/10/28 15:01:15;;;;;;;1999.90;999.90;;;20.70;99.90;;;;;;4998548;28;20041;-79
2022/10/28 15:03:42;;;;;;;1999.90;999.90;;;20.80;99.90;;;;;;4982053;28;20496;-79
2022/10/28 15:06:38;;;;;;;1999.90;999.90;;;20.90;99.90;;;;;;5001067;28;20506;-80
2022/10/28 15:09:27;;;;;;;1999.90;999.90;;;20.90;99.90;;;;;;5003086;28;20094;-77
2022/10/28 15:12:03;;;;;;;1999.90;999.90;;;20.90;99.90;;;;;;4991175;28;20102;-82
2022/10/28 15:14:44;;;;;;;1999.90;999.90;;;20.90;99.90;;;;;;5012695;28;20026;-80
2022/10/28 15:17:13;;;;;;;1999.90;999.90;;;20.80;99.90;;;;;;5010026;28;20063;-79
2022/10/28 15:19:39;;;;;;;1999.90;999.90;;;20.80;99.90;;;;;;5005808;28;20095;-81
2022/10/28 15:22:13;;;;;;;1999.90;999.90;;;20.60;99.90;;;;;;5010656;28;20049;-81
2022/10/28 15:24:39;;;;;;;1999.90;999.90;;;20.50;99.90;;;;;;5009779;28;20042;-80
2022/10/28 15:27:05;;;;;;;1999.90;999.90;;;20.40;99.90;;;;;;5009308;28;20827;-80
2022/10/28 15:29:30;;;;;;;1999.90;999.90;;;20.30;99.90;;;;;;5010132;28;20127;-80
2022/10/28 15:32:18;;;;;;;1999.90;999.90;;;20.20;99.90;;;;;;5011198;28;20057;-80
2022/10/28 15:34:43;;;;;;;1999.90;999.90;;;20.00;99.90;;;;;;5012894;28;20031;-80
2022/10/28 15:37:15;;;;;;;1999.90;999.90;;;19.90;99.90;;;;;;5013633;28;20042;-80
2022/10/28 15:39:40;;;;;;;1999.90;999.90;;;19.80;99.90;;;;;;5012774;28;20027;-80
2022/10/28 15:42:34;;;;;;;1999.90;999.90;;;19.60;99.90;;;;;;5012658;28;20047;-80
2022/10/28 15:45:00;;;;;;;1999.90;999.90;;;19.40;99.90;;;;;;5005421;28;20034;-80
2022/10/28 15:47:31;;;;;;;1999.90;999.90;;;19.30;99.90;;;;;;4998701;28;20031;-78
2022/10/28 15:50:26;;;;;;;1999.90;999.90;;;19.20;99.90;;;;;;4999272;28;20027;-79
2022/10/28 15:52:55;;;;;;;1999.90;999.90;;;19.00;99.90;;;;;;4987287;28;20540;-78
2022/10/28 15:55:20;;;;;;;1999.90;999.90;;;18.90;99.90;;;;;;4995870;28;20201;-78
2022/10/28 15:57:55;;;;;;;1999.90;999.90;;;18.90;99.90;;;;;;4995863;28;20109;-78
2022/10/28 16:00:31;;;;;;;1999.90;999.90;;;18.80;99.90;;;;;;4994305;28;20042;-78
2022/10/28 16:02:57;;;;;;;1999.90;999.90;;;18.70;99.90;;;;;;4997873;28;20038;-78
2022/10/28 16:05:35;;;;;;;1999.90;999.90;;;18.60;99.90;;;;;;5000665;28;20037;-81
2022/10/28 16:08:06;;;;;;;1999.90;999.90;;;18.50;99.90;;;;;;5001377;28;20039;-78
2022/10/28 16:10:42;;;;;;;1999.90;999.90;;;18.30;99.90;;;;;;5002836;28;20049;-77
2022/10/28 16:13:17;;;;;;;1999.90;999.90;;;18.10;99.90;;;;;;5003658;28;20038;-78
2022/10/28 16:15:53;;;;;;;1999.90;999.90;;;18.00;99.90;;;;;;4999183;28;20034;-78
2022/10/28 16:18:21;;;;;;;1999.90;999.90;;;17.70;99.90;;;;;;5000733;28;20035;-78
2022/10/28 16:20:47;;;;;;;1999.90;999.90;;;17.70;99.90;;;;;;5000963;28;20044;-78
2022/10/28 16:23:18;;;;;;;1999.90;999.90;;;17.60;99.90;;;;;;5000770;28;20035;-78
2022/10/28 16:25:43;;;;;;;1999.90;999.90;;;17.40;99.90;;;;;;4997547;28;20034;-78
2022/10/28 16:28:19;;;;;;;1999.90;999.90;;;17.30;99.90;;;;;;4997411;28;20496;-77